sensor_id;sensor_type;location;lat;lon;timestamp;pressure;altitude;pressure_sealevel;temperature;humidity
27040;BME280;14589;51.578;7.306;2024-03-25T00:00:37;100127.66;;;5.83;100.00
27040;BME280;14589;51.578;7.306;2024-03-25T00:03:07;100126.69;;;5.84;100.00
27040;BME280;14589;51.578;7.306;2024-03-25T00:05:37;100120.88;;;5.79;100.00
27040;BME280;14589;51.578;7.306;2024-03-25T00:08:08;100119.59;;;5.83;100.00
27040;BME280;14589;51.578;7.306;2024-03-25T00:10:38;100127.91;;;5.80;100.00
27040;BME280;14589;51.578;7.306;2024-03-25T00:13:09;100127.09;;;5.80;100.00
27040;BME280;14589;51.578;7.306;2024-03-25T00:15:40;100128.19;;;5.77;100.00
27040;BME280;14589;51.578;7.306;2024-03-25T00:18:12;100134.69;;;5.75;100.00
27040;BME280;14589;51.578;7.306;2024-03-25T00:20:42;100135.69;;;5.74;100.00
27040;BME280;14589;51.578;7.306;2024-03-25T00:23:12;100127.03;;;5.70;100.00
27040;BME280;14589;51.578;7.306;2024-03-25T00:25:43;100142.31;;;5.69;100.00
27040;BME280;14589;51.578;7.306;2024-03-25T00:28:13;100128.16;;;5.67;100.00
27040;BME280;14589;51.578;7.306;2024-03-25T00:30:45;100135.09;;;5.70;100.00
27040;BME280;14589;51.578;7.306;2024-03-25T00:33:15;100138.50;;;5.72;100.00
27040;BME280;14589;51.578;7.306;2024-03-25T00:35:47;100143.28;;;5.68;100.00
27040;BME280;14589;51.578;7.306;2024-03-25T00:38:17;100141.44;;;5.69;100.00
27040;BME280;14589;51.578;7.306;2024-03-25T00:40:47;100144.75;;;5.73;100.00
27040;BME280;14589;51.578;7.306;2024-03-25T00:43:18;100144.00;;;5.70;100.00
27040;BME280;14589;51.578;7.306;2024-03-25T00:45:49;100142.91;;;5.73;100.00
27040;BME280;14589;51.578;7.306;2024-03-25T00:48:20;100150.25;;;5.71;100.00
27040;BME280;14589;51.578;7.306;2024-03-25T00:50:50;100143.91;;;5.72;100.00
27040;BME280;14589;51.578;7.306;2024-03-25T00:53:21;100143.16;;;5.70;100.00
27040;BME280;14589;51.578;7.306;2024-03-25T00:55:52;100142.44;;;5.68;100.00
27040;BME280;14589;51.578;7.306;2024-03-25T00:58:22;100141.72;;;5.66;100.00
27040;BME280;14589;51.578;7.306;2024-03-25T01:00:53;100147.97;;;5.66;100.00
27040;BME280;14589;51.578;7.306;2024-03-25T01:03:23;100135.22;;;5.68;100.00
27040;BME280;14589;51.578;7.306;2024-03-25T01:05:53;100141.13;;;5.62;100.00
27040;BME280;14589;51.578;7.306;2024-03-25T01:08:24;100138.59;;;5.61;100.00
27040;BME280;14589;51.578;7.306;2024-03-25T01:10:54;100140.16;;;5.63;100.00
27040;BME280;14589;51.578;7.306;2024-03-25T01:13:25;100135.75;;;5.62;100.00
27040;BME280;14589;51.578;7.306;2024-03-25T01:15:56;100143.97;;;5.61;100.00
27040;BME280;14589;51.578;7.306;2024-03-25T01:18:26;100136.28;;;5.56;100.00
27040;BME280;14589;51.578;7.306;2024-03-25T01:20:56;100136.28;;;5.56;100.00
27040;BME280;14589;51.578;7.306;2024-03-25T01:23:27;100138.84;;;5.58;100.00
27040;BME280;14589;51.578;7.306;2024-03-25T01:25:57;100137.41;;;5.54;100.00
27040;BME280;14589;51.578;7.306;2024-03-25T01:28:28;100141.31;;;5.50;100.00
27040;BME280;14589;51.578;7.306;2024-03-25T01:30:58;100137.94;;;5.48;100.00
27040;BME280;14589;51.578;7.306;2024-03-25T01:33:28;100130.13;;;5.45;100.00
27040;BME280;14589;51.578;7.306;2024-03-25T01:35:59;100142.34;;;5.49;100.00
27040;BME280;14589;51.578;7.306;2024-03-25T01:38:30;100142.84;;;5.43;100.00
27040;BME280;14589;51.578;7.306;2024-03-25T01:41:08;100146.00;;;5.48;100.00
27040;BME280;14589;51.578;7.306;2024-03-25T01:43:38;100141.84;;;5.44;100.00
27040;BME280;14589;51.578;7.306;2024-03-25T01:46:09;100125.00;;;5.42;100.00
27040;BME280;14589;51.578;7.306;2024-03-25T01:48:39;100133.09;;;5.42;100.00
27040;BME280;14589;51.578;7.306;2024-03-25T01:51:11;100128.69;;;5.41;100.00
27040;BME280;14589;51.578;7.306;2024-03-25T01:53:43;100128.22;;;5.36;100.00
27040;BME280;14589;51.578;7.306;2024-03-25T01:56:15;100136.66;;;5.31;100.00
27040;BME280;14589;51.578;7.306;2024-03-25T01:58:47;100141.66;;;5.36;100.00
27040;BME280;14589;51.578;7.306;2024-03-25T02:01:18;100138.25;;;5.34;100.00
27040;BME280;14589;51.578;7.306;2024-03-25T02:03:50;100142.03;;;5.31;100.00
27040;BME280;14589;51.578;7.306;2024-03-25T02:06:21;100148.16;;;5.33;100.00
27040;BME280;14589;51.578;7.306;2024-03-25T02:08:53;100149.00;;;5.34;100.00
27040;BME280;14589;51.578;7.306;2024-03-25T02:11:25;100142.19;;;5.29;100.00
27040;BME280;14589;51.578;7.306;2024-03-25T02:13:56;100151.47;;;5.25;100.00
27040;BME280;14589;51.578;7.306;2024-03-25T02:16:26;100147.09;;;5.24;100.00
27040;BME280;14589;51.578;7.306;2024-03-25T02:18:57;100153.97;;;5.17;100.00
27040;BME280;14589;51.578;7.306;2024-03-25T02:21:27;100156.03;;;5.14;100.00
27040;BME280;14589;51.578;7.306;2024-03-25T02:23:59;100153.47;;;5.12;100.00
27040;BME280;14589;51.578;7.306;2024-03-25T02:26:30;100156.22;;;5.01;100.00
27040;BME280;14589;51.578;7.306;2024-03-25T02:29:01;100159.16;;;4.98;100.00
27040;BME280;14589;51.578;7.306;2024-03-25T02:31:32;100167.47;;;4.95;100.00
27040;BME280;14589;51.578;7.306;2024-03-25T02:34:02;100149.44;;;4.86;100.00
27040;BME280;14589;51.578;7.306;2024-03-25T02:36:33;100162.88;;;4.86;100.00
27040;BME280;14589;51.578;7.306;2024-03-25T02:39:03;100162.38;;;4.92;100.00
27040;BME280;14589;51.578;7.306;2024-03-25T02:41:34;100156.13;;;4.92;100.00
27040;BME280;14589;51.578;7.306;2024-03-25T02:44:06;100153.09;;;4.85;100.00
27040;BME280;14589;51.578;7.306;2024-03-25T02:46:39;100153.84;;;4.87;100.00
27040;BME280;14589;51.578;7.306;2024-03-25T02:49:10;100146.50;;;4.89;100.00
27040;BME280;14589;51.578;7.306;2024-03-25T02:51:40;100152.00;;;4.87;100.00
27040;BME280;14589;51.578;7.306;2024-03-25T02:54:11;100144.31;;;4.83;100.00
27040;BME280;14589;51.578;7.306;2024-03-25T02:56:43;100159.91;;;4.89;100.00
27040;BME280;14589;51.578;7.306;2024-03-25T02:59:14;100159.81;;;4.91;100.00
27040;BME280;14589;51.578;7.306;2024-03-25T03:01:44;100164.31;;;4.90;100.00
27040;BME280;14589;51.578;7.306;2024-03-25T03:04:14;100169.31;;;4.95;100.00
27040;BME280;14589;51.578;7.306;2024-03-25T03:06:45;100172.13;;;4.93;100.00
27040;BME280;14589;51.578;7.306;2024-03-25T03:09:15;100176.38;;;4.96;100.00
27040;BME280;14589;51.578;7.306;2024-03-25T03:11:45;100176.25;;;4.97;100.00
27040;BME280;14589;51.578;7.306;2024-03-25T03:14:16;100180.53;;;5.00;100.00
27040;BME280;14589;51.578;7.306;2024-03-25T03:16:47;100168.22;;;4.97;100.00
27040;BME280;14589;51.578;7.306;2024-03-25T03:19:17;100166.25;;;4.99;100.00
27040;BME280;14589;51.578;7.306;2024-03-25T03:21:47;100177.72;;;5.01;100.00
27040;BME280;14589;51.578;7.306;2024-03-25T03:24:18;100174.16;;;5.01;100.00
27040;BME280;14589;51.578;7.306;2024-03-25T03:26:49;100179.41;;;5.02;100.00
27040;BME280;14589;51.578;7.306;2024-03-25T03:29:19;100168.94;;;4.99;100.00
27040;BME280;14589;51.578;7.306;2024-03-25T03:31:49;100165.25;;;5.00;100.00
27040;BME280;14589;51.578;7.306;2024-03-25T03:34:20;100175.03;;;5.01;100.00
27040;BME280;14589;51.578;7.306;2024-03-25T03:36:50;100178.56;;;5.02;100.00
27040;BME280;14589;51.578;7.306;2024-03-25T03:39:20;100165.41;;;4.99;100.00
27040;BME280;14589;51.578;7.306;2024-03-25T03:41:51;100168.09;;;4.99;100.00
27040;BME280;14589;51.578;7.306;2024-03-25T03:44:21;100169.19;;;4.96;100.00
27040;BME280;14589;51.578;7.306;2024-03-25T03:46:52;100162.84;;;4.97;100.00
27040;BME280;14589;51.578;7.306;2024-03-25T03:49:22;100171.88;;;4.96;100.00
27040;BME280;14589;51.578;7.306;2024-03-25T03:51:52;100166.75;;;4.93;100.00
27040;BME280;14589;51.578;7.306;2024-03-25T03:54:23;100167.75;;;4.92;100.00
27040;BME280;14589;51.578;7.306;2024-03-25T03:56:53;100165.69;;;4.84;100.00
27040;BME280;14589;51.578;7.306;2024-03-25T03:59:23;100167.63;;;4.82;100.00
27040;BME280;14589;51.578;7.306;2024-03-25T04:01:54;100162.75;;;4.76;100.00
27040;BME280;14589;51.578;7.306;2024-03-25T04:04:25;100170.09;;;4.74;100.00
27040;BME280;14589;51.578;7.306;2024-03-25T04:06:56;100170.72;;;4.67;100.00
27040;BME280;14589;51.578;7.306;2024-03-25T04:09:27;100179.88;;;4.64;100.00
27040;BME280;14589;51.578;7.306;2024-03-25T04:11:59;100167.91;;;4.57;100.00
27040;BME280;14589;51.578;7.306;2024-03-25T04:14:30;100170.13;;;4.52;100.00
27040;BME280;14589;51.578;7.306;2024-03-25T04:17:01;100160.16;;;4.43;100.00
27040;BME280;14589;51.578;7.306;2024-03-25T04:19:31;100157.97;;;4.37;100.00
27040;BME280;14589;51.578;7.306;2024-03-25T04:22:02;100168.94;;;4.34;100.00
27040;BME280;14589;51.578;7.306;2024-03-25T04:24:33;100169.53;;;4.26;100.00
27040;BME280;14589;51.578;7.306;2024-03-25T04:27:04;100165.88;;;4.27;100.00
27040;BME280;14589;51.578;7.306;2024-03-25T04:29:35;100167.00;;;4.25;100.00
27040;BME280;14589;51.578;7.306;2024-03-25T04:32:05;100163.69;;;4.21;100.00
27040;BME280;14589;51.578;7.306;2024-03-25T04:34:36;100169.06;;;4.10;100.00
27040;BME280;14589;51.578;7.306;2024-03-25T04:37:06;100172.97;;;4.06;100.00
27040;BME280;14589;51.578;7.306;2024-03-25T04:39:36;100180.06;;;4.07;100.00
27040;BME280;14589;51.578;7.306;2024-03-25T04:42:08;100178.94;;;3.98;100.00
27040;BME280;14589;51.578;7.306;2024-03-25T04:44:38;100174.06;;;3.92;100.00
27040;BME280;14589;51.578;7.306;2024-03-25T04:47:09;100186.59;;;3.92;100.00
27040;BME280;14589;51.578;7.306;2024-03-25T04:49:39;100182.81;;;3.83;100.00
27040;BME280;14589;51.578;7.306;2024-03-25T04:52:11;100193.31;;;3.86;100.00
27040;BME280;14589;51.578;7.306;2024-03-25T04:54:43;100198.78;;;3.85;100.00
27040;BME280;14589;51.578;7.306;2024-03-25T04:57:14;100189.03;;;3.84;100.00
27040;BME280;14589;51.578;7.306;2024-03-25T04:59:44;100187.31;;;3.83;100.00
27040;BME280;14589;51.578;7.306;2024-03-25T05:02:15;100192.56;;;3.84;100.00
27040;BME280;14589;51.578;7.306;2024-03-25T05:04:45;100187.19;;;3.84;100.00
27040;BME280;14589;51.578;7.306;2024-03-25T05:07:15;100197.59;;;3.89;100.00
27040;BME280;14589;51.578;7.306;2024-03-25T05:09:46;100205.50;;;3.90;100.00
27040;BME280;14589;51.578;7.306;2024-03-25T05:12:16;100195.88;;;3.88;100.00
27040;BME280;14589;51.578;7.306;2024-03-25T05:14:46;100209.78;;;3.93;100.00
27040;BME280;14589;51.578;7.306;2024-03-25T05:17:17;100212.47;;;3.93;100.00
27040;BME280;14589;51.578;7.306;2024-03-25T05:19:47;100212.94;;;3.98;100.00
27040;BME280;14589;51.578;7.306;2024-03-25T05:22:17;100204.91;;;3.98;100.00
27040;BME280;14589;51.578;7.306;2024-03-25T05:24:48;100202.00;;;4.01;100.00
27040;BME280;14589;51.578;7.306;2024-03-25T05:27:19;100198.78;;;3.96;100.00
27040;BME280;14589;51.578;7.306;2024-03-25T05:29:49;100203.81;;;4.00;100.00
27040;BME280;14589;51.578;7.306;2024-03-25T05:32:20;100216.84;;;3.94;100.00
27040;BME280;14589;51.578;7.306;2024-03-25T05:34:51;100209.88;;;3.91;100.00
27040;BME280;14589;51.578;7.306;2024-03-25T05:37:22;100203.94;;;3.88;100.00
27040;BME280;14589;51.578;7.306;2024-03-25T05:39:53;100204.50;;;3.80;100.00
27040;BME280;14589;51.578;7.306;2024-03-25T05:42:24;100209.13;;;3.78;100.00
27040;BME280;14589;51.578;7.306;2024-03-25T05:44:54;100216.56;;;3.75;100.00
27040;BME280;14589;51.578;7.306;2024-03-25T05:47:25;100202.53;;;3.71;100.00
27040;BME280;14589;51.578;7.306;2024-03-25T05:49:55;100213.25;;;3.71;100.00
27040;BME280;14589;51.578;7.306;2024-03-25T05:52:28;100220.31;;;3.72;100.00
27040;BME280;14589;51.578;7.306;2024-03-25T05:54:58;100212.41;;;3.71;100.00
27040;BME280;14589;51.578;7.306;2024-03-25T05:57:29;100221.53;;;3.68;100.00
27040;BME280;14589;51.578;7.306;2024-03-25T05:59:59;100224.59;;;3.63;100.00
27040;BME280;14589;51.578;7.306;2024-03-25T06:02:29;100219.22;;;3.63;100.00
27040;BME280;14589;51.578;7.306;2024-03-25T06:05:03;100226.28;;;3.64;100.00
27040;BME280;14589;51.578;7.306;2024-03-25T06:07:35;100228.25;;;3.62;100.00
27040;BME280;14589;51.578;7.306;2024-03-25T06:10:05;100202.41;;;3.61;100.00
27040;BME280;14589;51.578;7.306;2024-03-25T06:12:36;100221.91;;;3.63;100.00
27040;BME280;14589;51.578;7.306;2024-03-25T06:15:07;100227.97;;;3.65;100.00
27040;BME280;14589;51.578;7.306;2024-03-25T06:17:37;100220.91;;;3.64;100.00
27040;BME280;14589;51.578;7.306;2024-03-25T06:20:08;100216.53;;;3.63;100.00
27040;BME280;14589;51.578;7.306;2024-03-25T06:22:39;100217.25;;;3.65;100.00
27040;BME280;14589;51.578;7.306;2024-03-25T06:25:09;100225.56;;;3.62;100.00
27040;BME280;14589;51.578;7.306;2024-03-25T06:27:40;100214.72;;;3.64;100.00
27040;BME280;14589;51.578;7.306;2024-03-25T06:30:11;100225.09;;;3.69;100.00
27040;BME280;14589;51.578;7.306;2024-03-25T06:33:00;100223.25;;;3.69;100.00
27040;BME280;14589;51.578;7.306;2024-03-25T06:35:48;100230.44;;;3.69;100.00
27040;BME280;14589;51.578;7.306;2024-03-25T06:38:19;100223.75;;;3.74;100.00
27040;BME280;14589;51.578;7.306;2024-03-25T06:40:49;100221.28;;;3.71;100.00
27040;BME280;14589;51.578;7.306;2024-03-25T06:43:21;100219.13;;;3.76;100.00
27040;BME280;14589;51.578;7.306;2024-03-25T06:45:52;100216.78;;;3.72;100.00
27040;BME280;14589;51.578;7.306;2024-03-25T06:48:22;100227.53;;;3.83;100.00
27040;BME280;14589;51.578;7.306;2024-03-25T06:50:56;100230.00;;;3.97;100.00
27040;BME280;14589;51.578;7.306;2024-03-25T06:53:30;100225.88;;;4.04;100.00
27040;BME280;14589;51.578;7.306;2024-03-25T06:56:01;100231.63;;;4.11;100.00
27040;BME280;14589;51.578;7.306;2024-03-25T06:58:31;100234.69;;;4.17;100.00
27040;BME280;14589;51.578;7.306;2024-03-25T07:01:06;100234.69;;;4.17;100.00
27040;BME280;14589;51.578;7.306;2024-03-25T07:03:38;100232.25;;;4.25;100.00
27040;BME280;14589;51.578;7.306;2024-03-25T07:06:08;100235.31;;;4.43;100.00
27040;BME280;14589;51.578;7.306;2024-03-25T07:08:38;100223.09;;;4.61;100.00
27040;BME280;14589;51.578;7.306;2024-03-25T07:11:09;100226.59;;;4.84;100.00
27040;BME280;14589;51.578;7.306;2024-03-25T07:13:39;100234.00;;;5.03;100.00
27040;BME280;14589;51.578;7.306;2024-03-25T07:16:12;100231.00;;;5.28;100.00
27040;BME280;14589;51.578;7.306;2024-03-25T07:18:42;100237.75;;;5.54;100.00
27040;BME280;14589;51.578;7.306;2024-03-25T07:21:12;100234.38;;;5.73;100.00
27040;BME280;14589;51.578;7.306;2024-03-25T07:23:43;100234.84;;;5.99;100.00
27040;BME280;14589;51.578;7.306;2024-03-25T07:26:13;100239.41;;;5.98;100.00
27040;BME280;14589;51.578;7.306;2024-03-25T07:28:43;100230.63;;;6.06;100.00
27040;BME280;14589;51.578;7.306;2024-03-25T07:31:14;100231.19;;;6.30;100.00
27040;BME280;14589;51.578;7.306;2024-03-25T07:33:44;100232.25;;;6.39;100.00
27040;BME280;14589;51.578;7.306;2024-03-25T07:36:14;100229.28;;;6.42;100.00
27040;BME280;14589;51.578;7.306;2024-03-25T07:38:45;100228.47;;;6.51;100.00
27040;BME280;14589;51.578;7.306;2024-03-25T07:41:15;100239.13;;;6.53;100.00
27040;BME280;14589;51.578;7.306;2024-03-25T07:43:46;100241.16;;;6.60;100.00
27040;BME280;14589;51.578;7.306;2024-03-25T07:46:16;100243.75;;;6.81;100.00
27040;BME280;14589;51.578;7.306;2024-03-25T07:48:46;100238.28;;;7.02;100.00
27040;BME280;14589;51.578;7.306;2024-03-25T07:51:17;100235.09;;;7.27;100.00
27040;BME280;14589;51.578;7.306;2024-03-25T07:53:47;100239.22;;;7.50;100.00
27040;BME280;14589;51.578;7.306;2024-03-25T07:56:17;100229.25;;;7.60;100.00
27040;BME280;14589;51.578;7.306;2024-03-25T07:58:48;100226.44;;;7.52;100.00
27040;BME280;14589;51.578;7.306;2024-03-25T08:01:18;100235.66;;;7.79;100.00
27040;BME280;14589;51.578;7.306;2024-03-25T08:03:49;100226.09;;;8.13;100.00
27040;BME280;14589;51.578;7.306;2024-03-25T08:06:20;100223.25;;;8.05;96.70
27040;BME280;14589;51.578;7.306;2024-03-25T08:08:54;100228.34;;;8.37;96.89
27040;BME280;14589;51.578;7.306;2024-03-25T08:11:24;100219.19;;;8.47;93.17
27040;BME280;14589;51.578;7.306;2024-03-25T08:13:54;100220.50;;;8.43;93.85
27040;BME280;14589;51.578;7.306;2024-03-25T08:16:25;100229.03;;;8.76;92.73
27040;BME280;14589;51.578;7.306;2024-03-25T08:18:58;100226.63;;;9.00;91.44
27040;BME280;14589;51.578;7.306;2024-03-25T08:21:29;100226.94;;;9.15;88.84
27040;BME280;14589;51.578;7.306;2024-03-25T08:23:59;100223.69;;;9.56;88.93
27040;BME280;14589;51.578;7.306;2024-03-25T08:26:30;100224.34;;;9.76;89.55
27040;BME280;14589;51.578;7.306;2024-03-25T08:29:00;100217.66;;;10.06;84.18
27040;BME280;14589;51.578;7.306;2024-03-25T08:31:31;100232.72;;;9.65;85.85
27040;BME280;14589;51.578;7.306;2024-03-25T08:34:01;100225.84;;;10.14;83.64
27040;BME280;14589;51.578;7.306;2024-03-25T08:36:32;100229.31;;;10.50;84.60
27040;BME280;14589;51.578;7.306;2024-03-25T08:39:02;100227.81;;;10.55;81.93
27040;BME280;14589;51.578;7.306;2024-03-25T08:41:34;100227.16;;;10.62;80.09
27040;BME280;14589;51.578;7.306;2024-03-25T08:44:04;100220.41;;;10.32;76.62
27040;BME280;14589;51.578;7.306;2024-03-25T08:46:35;100228.31;;;10.25;79.39
27040;BME280;14589;51.578;7.306;2024-03-25T08:49:05;100223.28;;;10.12;76.57
27040;BME280;14589;51.578;7.306;2024-03-25T08:51:36;100224.09;;;10.57;77.49
27040;BME280;14589;51.578;7.306;2024-03-25T08:54:06;100229.16;;;10.51;76.16
27040;BME280;14589;51.578;7.306;2024-03-25T08:56:36;100216.81;;;10.57;72.87
27040;BME280;14589;51.578;7.306;2024-03-25T08:59:07;100228.38;;;10.33;74.49
27040;BME280;14589;51.578;7.306;2024-03-25T09:01:39;100215.97;;;10.05;74.98
27040;BME280;14589;51.578;7.306;2024-03-25T09:04:10;100212.44;;;10.12;73.73
27040;BME280;14589;51.578;7.306;2024-03-25T09:06:40;100219.97;;;10.19;72.98
27040;BME280;14589;51.578;7.306;2024-03-25T09:09:10;100216.63;;;10.07;70.42
27040;BME280;14589;51.578;7.306;2024-03-25T09:11:59;100217.75;;;9.96;71.29
27040;BME280;14589;51.578;7.306;2024-03-25T09:14:29;100229.44;;;9.97;68.92
27040;BME280;14589;51.578;7.306;2024-03-25T09:17:00;100223.22;;;9.61;67.76
27040;BME280;14589;51.578;7.306;2024-03-25T09:19:30;100225.44;;;9.65;67.84
27040;BME280;14589;51.578;7.306;2024-03-25T09:22:01;100225.78;;;9.62;66.73
27040;BME280;14589;51.578;7.306;2024-03-25T09:24:31;100233.91;;;9.88;68.69
27040;BME280;14589;51.578;7.306;2024-03-25T09:27:02;100228.09;;;10.19;71.21
27040;BME280;14589;51.578;7.306;2024-03-25T09:29:32;100230.81;;;10.19;66.86
27040;BME280;14589;51.578;7.306;2024-03-25T09:32:03;100220.88;;;10.27;68.01
27040;BME280;14589;51.578;7.306;2024-03-25T09:34:33;100220.72;;;10.29;66.80
27040;BME280;14589;51.578;7.306;2024-03-25T09:37:04;100212.38;;;10.22;67.38
27040;BME280;14589;51.578;7.306;2024-03-25T09:39:34;100219.28;;;10.17;67.13
27040;BME280;14589;51.578;7.306;2024-03-25T09:42:06;100208.91;;;10.12;67.31
27040;BME280;14589;51.578;7.306;2024-03-25T09:44:38;100227.28;;;10.18;68.01
27040;BME280;14589;51.578;7.306;2024-03-25T09:47:08;100207.97;;;10.21;67.16
27040;BME280;14589;51.578;7.306;2024-03-25T09:49:40;100216.84;;;10.13;68.02
27040;BME280;14589;51.578;7.306;2024-03-25T09:52:11;100206.19;;;10.12;68.70
27040;BME280;14589;51.578;7.306;2024-03-25T09:54:41;100225.16;;;10.12;67.23
27040;BME280;14589;51.578;7.306;2024-03-25T09:57:12;100216.69;;;10.15;66.90
27040;BME280;14589;51.578;7.306;2024-03-25T09:59:43;100214.41;;;10.20;67.16
27040;BME280;14589;51.578;7.306;2024-03-25T10:02:14;100202.97;;;10.34;66.72
27040;BME280;14589;51.578;7.306;2024-03-25T10:04:48;100200.47;;;10.41;66.94
27040;BME280;14589;51.578;7.306;2024-03-25T10:07:25;100210.03;;;10.53;66.37
27040;BME280;14589;51.578;7.306;2024-03-25T10:09:57;100206.81;;;10.58;67.27
27040;BME280;14589;51.578;7.306;2024-03-25T10:12:28;100201.44;;;10.66;62.46
27040;BME280;14589;51.578;7.306;2024-03-25T10:14:59;100198.19;;;10.62;62.06
27040;BME280;14589;51.578;7.306;2024-03-25T10:17:33;100201.59;;;10.64;61.97
27040;BME280;14589;51.578;7.306;2024-03-25T10:20:04;100197.34;;;10.62;63.19
27040;BME280;14589;51.578;7.306;2024-03-25T10:22:44;100194.13;;;10.58;61.08
27040;BME280;14589;51.578;7.306;2024-03-25T10:25:27;100198.50;;;10.51;63.02
27040;BME280;14589;51.578;7.306;2024-03-25T10:27:58;100193.03;;;10.43;62.18
27040;BME280;14589;51.578;7.306;2024-03-25T10:30:29;100186.38;;;10.37;62.21
27040;BME280;14589;51.578;7.306;2024-03-25T10:33:04;100186.44;;;10.45;63.25
27040;BME280;14589;51.578;7.306;2024-03-25T10:35:37;100178.66;;;10.84;62.54
27040;BME280;14589;51.578;7.306;2024-03-25T10:38:09;100176.03;;;11.25;58.80
27040;BME280;14589;51.578;7.306;2024-03-25T10:40:43;100174.72;;;11.29;57.40
27040;BME280;14589;51.578;7.306;2024-03-25T10:43:15;100175.44;;;11.88;56.66
27040;BME280;14589;51.578;7.306;2024-03-25T10:45:48;100166.53;;;12.34;55.63
27040;BME280;14589;51.578;7.306;2024-03-25T10:48:24;100172.28;;;12.39;53.22
27040;BME280;14589;51.578;7.306;2024-03-25T10:50:58;100158.91;;;12.77;53.70
27040;BME280;14589;51.578;7.306;2024-03-25T10:53:31;100165.00;;;12.32;52.64
27040;BME280;14589;51.578;7.306;2024-03-25T10:56:03;100160.09;;;12.74;51.65
27040;BME280;14589;51.578;7.306;2024-03-25T10:58:35;100151.22;;;13.19;48.89
27040;BME280;14589;51.578;7.306;2024-03-25T11:01:07;100151.47;;;13.32;48.15
27040;BME280;14589;51.578;7.306;2024-03-25T11:03:38;100144.06;;;13.41;49.38
27040;BME280;14589;51.578;7.306;2024-03-25T11:06:08;100146.41;;;13.21;47.84
27040;BME280;14589;51.578;7.306;2024-03-25T11:08:39;100125.56;;;13.36;47.03
27040;BME280;14589;51.578;7.306;2024-03-25T11:11:11;100136.34;;;12.91;49.18
27040;BME280;14589;51.578;7.306;2024-03-25T11:13:42;100119.06;;;13.15;48.14
27040;BME280;14589;51.578;7.306;2024-03-25T11:16:12;100119.22;;;13.44;48.07
27040;BME280;14589;51.578;7.306;2024-03-25T11:18:50;100118.38;;;13.58;47.60
27040;BME280;14589;51.578;7.306;2024-03-25T11:21:26;100121.56;;;13.85;44.48
27040;BME280;14589;51.578;7.306;2024-03-25T11:24:06;100110.22;;;13.96;46.08
27040;BME280;14589;51.578;7.306;2024-03-25T11:26:43;100116.22;;;13.91;46.11
27040;BME280;14589;51.578;7.306;2024-03-25T11:29:13;100112.34;;;13.48;47.31
27040;BME280;14589;51.578;7.306;2024-03-25T11:31:44;100109.88;;;13.16;47.05
27040;BME280;14589;51.578;7.306;2024-03-25T11:34:15;100105.66;;;13.36;46.79
27040;BME280;14589;51.578;7.306;2024-03-25T11:36:46;100098.19;;;13.07;46.25
27040;BME280;14589;51.578;7.306;2024-03-25T11:39:19;100087.09;;;13.54;47.01
27040;BME280;14589;51.578;7.306;2024-03-25T11:41:49;100090.06;;;13.67;45.34
27040;BME280;14589;51.578;7.306;2024-03-25T11:44:20;100088.22;;;13.97;46.30
27040;BME280;14589;51.578;7.306;2024-03-25T11:46:52;100088.72;;;14.95;40.52
27040;BME280;14589;51.578;7.306;2024-03-25T11:49:25;100081.53;;;15.52;39.10
27040;BME280;14589;51.578;7.306;2024-03-25T11:51:55;100082.41;;;16.08;39.13
27040;BME280;14589;51.578;7.306;2024-03-25T11:54:28;100071.63;;;16.34;35.80
27040;BME280;14589;51.578;7.306;2024-03-25T11:56:59;100067.00;;;16.76;37.55
27040;BME280;14589;51.578;7.306;2024-03-25T11:59:29;100062.44;;;16.96;35.53
27040;BME280;14589;51.578;7.306;2024-03-25T12:01:59;100065.22;;;17.09;34.84
27040;BME280;14589;51.578;7.306;2024-03-25T12:04:30;100068.84;;;17.36;35.09
27040;BME280;14589;51.578;7.306;2024-03-25T12:07:01;100053.66;;;17.60;34.57
27040;BME280;14589;51.578;7.306;2024-03-25T12:09:32;100061.31;;;17.71;34.91
27040;BME280;14589;51.578;7.306;2024-03-25T12:12:21;100065.47;;;17.47;35.21
27040;BME280;14589;51.578;7.306;2024-03-25T12:14:52;100048.78;;;17.22;33.63
27040;BME280;14589;51.578;7.306;2024-03-25T12:17:25;100054.47;;;17.14;33.79
27040;BME280;14589;51.578;7.306;2024-03-25T12:20:06;100052.19;;;17.37;34.39
27040;BME280;14589;51.578;7.306;2024-03-25T12:22:38;100045.81;;;17.17;35.74
27040;BME280;14589;51.578;7.306;2024-03-25T12:25:08;100042.31;;;17.89;34.78
27040;BME280;14589;51.578;7.306;2024-03-25T12:27:39;100024.97;;;17.29;35.62
27040;BME280;14589;51.578;7.306;2024-03-25T12:30:12;100029.22;;;17.38;34.28
27040;BME280;14589;51.578;7.306;2024-03-25T12:32:44;100024.13;;;17.09;35.84
27040;BME280;14589;51.578;7.306;2024-03-25T12:35:16;100017.50;;;16.23;36.77
27040;BME280;14589;51.578;7.306;2024-03-25T12:37:49;100018.91;;;15.29;38.00
27040;BME280;14589;51.578;7.306;2024-03-25T12:40:27;100017.91;;;15.86;37.01
27040;BME280;14589;51.578;7.306;2024-03-25T12:42:58;100013.88;;;16.16;36.70
27040;BME280;14589;51.578;7.306;2024-03-25T12:45:28;100007.44;;;16.37;37.62
27040;BME280;14589;51.578;7.306;2024-03-25T12:47:59;99998.22;;;16.51;35.00
27040;BME280;14589;51.578;7.306;2024-03-25T12:50:29;100002.75;;;16.72;35.84
27040;BME280;14589;51.578;7.306;2024-03-25T12:53:00;99997.53;;;16.90;33.23
27040;BME280;14589;51.578;7.306;2024-03-25T12:55:30;99988.31;;;17.70;33.03
27040;BME280;14589;51.578;7.306;2024-03-25T12:58:00;99977.34;;;17.30;33.03
27040;BME280;14589;51.578;7.306;2024-03-25T13:00:31;99979.22;;;17.83;33.62
27040;BME280;14589;51.578;7.306;2024-03-25T13:03:01;99983.53;;;18.74;30.02
27040;BME280;14589;51.578;7.306;2024-03-25T13:05:32;99978.19;;;18.86;29.72
27040;BME280;14589;51.578;7.306;2024-03-25T13:08:03;99982.03;;;19.34;28.88
27040;BME280;14589;51.578;7.306;2024-03-25T13:10:33;99966.03;;;19.56;28.02